createdAt,value
2023-04-18T00:00:31.796Z,50.852806
2023-04-18T00:01:31.775Z,50.852783
2023-04-18T00:02:31.872Z,50.852760
2023-04-18T00:03:31.977Z,50.852741
2023-04-18T00:04:31.854Z,50.852764
2023-04-18T00:05:31.746Z,50.852779
2023-04-18T00:06:31.750Z,50.852768
2023-04-18T00:07:31.728Z,50.852768
2023-04-18T00:08:31.759Z,50.852787
2023-04-18T00:09:31.788Z,50.852798
2023-04-18T00:10:31.766Z,50.852795
2023-04-18T00:11:31.715Z,50.852806
2023-04-18T00:12:31.739Z,50.852810
2023-04-18T00:13:31.712Z,50.852818
2023-04-18T00:14:31.737Z,50.852795
2023-04-18T00:15:31.690Z,50.852783
2023-04-18T00:16:31.709Z,50.852783
2023-04-18T00:17:31.706Z,50.852791
2023-04-18T00:18:31.715Z,50.852825
2023-04-18T00:19:31.677Z,50.852779
2023-04-18T00:20:31.691Z,50.852768
2023-04-18T00:21:31.675Z,50.852783
2023-04-18T00:22:31.662Z,50.852772
2023-04-18T00:23:31.625Z,50.852753
2023-04-18T00:24:31.658Z,50.852783
2023-04-18T00:25:31.618Z,50.852837
2023-04-18T00:26:31.634Z,50.852825
2023-04-18T00:27:31.606Z,50.852806
2023-04-18T00:28:31.635Z,50.852818
2023-04-18T00:29:31.681Z,50.852844
2023-04-18T00:30:31.625Z,50.852852
2023-04-18T00:31:31.689Z,50.852837
2023-04-18T00:32:31.618Z,50.852829
2023-04-18T00:33:31.590Z,50.852810
2023-04-18T00:34:31.625Z,50.852806
2023-04-18T00:35:31.560Z,50.852787
2023-04-18T00:36:31.578Z,50.852787
2023-04-18T00:37:31.562Z,50.852806
2023-04-18T00:38:31.562Z,50.852783
2023-04-18T00:39:31.568Z,50.852814
2023-04-18T00:40:31.553Z,50.852795
2023-04-18T00:41:31.542Z,50.852825
2023-04-18T00:42:31.561Z,50.852833
2023-04-18T00:43:31.545Z,50.852818
2023-04-18T00:44:31.528Z,50.852829
2023-04-18T00:45:31.507Z,50.852821
2023-04-18T00:46:31.569Z,50.852818
2023-04-18T00:47:31.550Z,50.852848
2023-04-18T00:48:31.537Z,50.852825
2023-04-18T00:49:31.499Z,50.852833
2023-04-18T00:50:31.516Z,50.852825
2023-04-18T00:51:31.478Z,50.852802
2023-04-18T00:52:31.483Z,50.852783
2023-04-18T00:53:31.477Z,50.852810
2023-04-18T00:54:31.474Z,50.852802
2023-04-18T00:55:31.478Z,50.852806
2023-04-18T00:56:31.480Z,50.852791
2023-04-18T00:57:31.434Z,50.852779
2023-04-18T00:58:31.452Z,50.852779
2023-04-18T00:59:31.456Z,50.852783
2023-04-18T01:00:31.447Z,50.852791
2023-04-18T01:01:31.441Z,50.852818
2023-04-18T01:02:31.561Z,50.852810
2023-04-18T01:03:31.576Z,50.852795
2023-04-18T01:04:31.543Z,50.852783
2023-04-18T01:05:31.428Z,50.852787
2023-04-18T01:06:31.440Z,50.852840
2023-04-18T01:07:31.393Z,50.852814
2023-04-18T01:08:31.420Z,50.852802
2023-04-18T01:09:31.407Z,50.852760
2023-04-18T01:10:31.388Z,50.852806
2023-04-18T01:11:31.397Z,50.852798
2023-04-18T01:12:31.383Z,50.852787
2023-04-18T01:13:31.544Z,50.852787
2023-04-18T01:14:31.363Z,50.852787
2023-04-18T01:15:31.342Z,50.852783
2023-04-18T01:16:31.391Z,50.852798
2023-04-18T01:17:31.350Z,50.852787
2023-04-18T01:18:31.349Z,50.852779
2023-04-18T01:19:31.360Z,50.852798
2023-04-18T01:20:31.334Z,50.852806
2023-04-18T01:21:31.346Z,50.852783
2023-04-18T01:22:31.327Z,50.852776
2023-04-18T01:23:31.295Z,50.852821
2023-04-18T01:24:31.318Z,50.852821
2023-04-18T01:25:31.312Z,50.852833
2023-04-18T01:26:31.306Z,50.852818
2023-04-18T01:27:31.277Z,50.852829
2023-04-18T01:28:31.297Z,50.852844
2023-04-18T01:29:31.287Z,50.852810
2023-04-18T01:30:31.292Z,50.852802
2023-04-18T01:31:31.310Z,50.852787
2023-04-18T01:32:31.340Z,50.852825
2023-04-18T01:33:31.243Z,50.852810
2023-04-18T01:34:31.262Z,50.852802
2023-04-18T01:35:31.253Z,50.852821
2023-04-18T01:36:31.251Z,50.852783
2023-04-18T01:37:31.228Z,50.852810
2023-04-18T01:38:31.259Z,50.852844
2023-04-18T01:39:31.225Z,50.852837
2023-04-18T01:40:31.233Z,50.852863
2023-04-18T01:41:31.231Z,50.852821
2023-04-18T01:42:31.219Z,50.852791
2023-04-18T01:43:31.212Z,50.852783
2023-04-18T01:44:31.266Z,50.852821
2023-04-18T01:45:31.191Z,50.852833
2023-04-18T01:46:31.301Z,50.852840
2023-04-18T01:47:31.185Z,50.852852
2023-04-18T01:48:31.191Z,50.852821
2023-04-18T01:49:31.161Z,50.852806
2023-04-18T01:50:31.206Z,50.852810
2023-04-18T01:51:31.164Z,50.852844
2023-04-18T01:52:31.194Z,50.852821
2023-04-18T01:53:31.137Z,50.852837
2023-04-18T01:54:31.157Z,50.852837
2023-04-18T01:55:31.145Z,50.852829
2023-04-18T01:56:31.145Z,50.852840
2023-04-18T01:57:31.121Z,50.852840
2023-04-18T01:58:31.152Z,50.852791
2023-04-18T01:59:31.117Z,50.852806
2023-04-18T02:00:31.200Z,50.852806
2023-04-18T02:01:31.094Z,50.852783
2023-04-18T02:02:31.216Z,50.852791
2023-04-18T02:03:31.193Z,50.852806
2023-04-18T02:04:31.129Z,50.852798
2023-04-18T02:05:31.089Z,50.852833
2023-04-18T02:06:31.104Z,50.852787
2023-04-18T02:07:31.081Z,50.852791
2023-04-18T02:08:31.080Z,50.852802
2023-04-18T02:09:31.048Z,50.852829
2023-04-18T02:10:31.075Z,50.852802
2023-04-18T02:11:31.116Z,50.852844
2023-04-18T02:12:31.078Z,50.852798
2023-04-18T02:13:31.065Z,50.852814
2023-04-18T02:14:31.054Z,50.852840
2023-04-18T02:15:31.027Z,50.852798
2023-04-18T02:16:31.109Z,50.852818
2023-04-18T02:17:31.053Z,50.852821
2023-04-18T02:18:31.033Z,50.852810
2023-04-18T02:19:31.021Z,50.852867
2023-04-18T02:20:31.018Z,50.852821
2023-04-18T02:21:31.011Z,50.852795
2023-04-18T02:22:31.059Z,50.852760
2023-04-18T02:23:30.994Z,50.852795
2023-04-18T02:24:30.997Z,50.852802
2023-04-18T02:25:30.983Z,50.852787
2023-04-18T02:26:30.992Z,50.852798
2023-04-18T02:27:30.978Z,50.852776
2023-04-18T02:28:31.004Z,50.852753
2023-04-18T02:29:30.967Z,50.852825
2023-04-18T02:30:30.974Z,50.852867
2023-04-18T02:31:30.961Z,50.852779
2023-04-18T02:32:31.039Z,50.852833
2023-04-18T02:33:30.966Z,50.852802
2023-04-18T02:34:30.947Z,50.852791
2023-04-18T02:35:30.922Z,50.852806
2023-04-18T02:36:30.960Z,50.852787
2023-04-18T02:37:30.912Z,50.852833
2023-04-18T02:38:30.939Z,50.852798
2023-04-18T02:39:30.919Z,50.852814
2023-04-18T02:40:30.932Z,50.852821
2023-04-18T02:41:30.894Z,50.852837
2023-04-18T02:42:30.924Z,50.852806
2023-04-18T02:43:30.903Z,50.852859
2023-04-18T02:44:30.898Z,50.852821
2023-04-18T02:45:30.911Z,50.852829
2023-04-18T02:46:30.971Z,50.852837
2023-04-18T02:47:37.555Z,50.852818
2023-04-18T02:48:31.952Z,50.852802
2023-04-18T02:49:30.854Z,50.852859
2023-04-18T02:50:30.881Z,50.852863
2023-04-18T02:51:30.841Z,50.852852
2023-04-18T02:52:30.881Z,50.852840
2023-04-18T02:53:30.837Z,50.852798
2023-04-18T02:54:30.840Z,50.852795
2023-04-18T02:55:30.811Z,50.852772
2023-04-18T02:56:30.833Z,50.852798
2023-04-18T02:57:30.824Z,50.852772
2023-04-18T02:58:30.851Z,50.852772
2023-04-18T02:59:30.789Z,50.852802
2023-04-18T03:00:30.805Z,50.852798
2023-04-18T03:01:30.841Z,50.852791
2023-04-18T03:02:30.882Z,50.852848
2023-04-18T03:03:30.821Z,50.852810
2023-04-18T03:04:30.848Z,50.852779
2023-04-18T03:05:30.765Z,50.852779
2023-04-18T03:06:30.766Z,50.852795
2023-04-18T03:07:30.784Z,50.852772
2023-04-18T03:08:30.767Z,50.852795
2023-04-18T03:09:30.774Z,50.852783
2023-04-18T03:10:30.768Z,50.852848
2023-04-18T03:11:30.727Z,50.852829
2023-04-18T03:12:30.746Z,50.852806
2023-04-18T03:13:30.722Z,50.852863
2023-04-18T03:14:30.732Z,50.852814
2023-04-18T03:15:30.722Z,50.852856
2023-04-18T03:16:30.749Z,50.852837
2023-04-18T03:17:30.726Z,50.852833
2023-04-18T03:18:30.697Z,50.852829
2023-04-18T03:19:30.687Z,50.852814
2023-04-18T03:20:30.686Z,50.852791
2023-04-18T03:21:30.669Z,50.852825
2023-04-18T03:22:30.713Z,50.852840
2023-04-18T03:23:30.696Z,50.852810
2023-04-18T03:24:30.689Z,50.852814
2023-04-18T03:25:30.649Z,50.852814
2023-04-18T03:26:30.672Z,50.852818
2023-04-18T03:27:30.643Z,50.852821
2023-04-18T03:28:30.642Z,50.852825
2023-04-18T03:29:30.638Z,50.852833
2023-04-18T03:30:30.644Z,50.852837
2023-04-18T03:31:30.637Z,50.852821
2023-04-18T03:32:30.688Z,50.852825
2023-04-18T03:33:30.614Z,50.852810
2023-04-18T03:34:30.628Z,50.852837
2023-04-18T03:35:30.597Z,50.852818
2023-04-18T03:36:30.599Z,50.852814
2023-04-18T03:37:30.602Z,50.852821
2023-04-18T03:38:30.603Z,50.852810
2023-04-18T03:39:30.581Z,50.852810
2023-04-18T03:40:30.573Z,50.852810
2023-04-18T03:41:30.607Z,50.852821
2023-04-18T03:42:30.581Z,50.852821
2023-04-18T03:43:30.540Z,50.852825
2023-04-18T03:44:30.555Z,50.852798
2023-04-18T03:45:30.552Z,50.852791
2023-04-18T03:46:30.602Z,50.852791
2023-04-18T03:47:30.573Z,50.852814
2023-04-18T03:48:30.555Z,50.852840
2023-04-18T03:49:30.525Z,50.852859
2023-04-18T03:50:30.548Z,50.852844
2023-04-18T03:51:30.499Z,50.852821
2023-04-18T03:52:30.509Z,50.852821
2023-04-18T03:53:30.510Z,50.852829
2023-04-18T03:54:30.523Z,50.852818
2023-04-18T03:55:30.490Z,50.852791
2023-04-18T03:56:30.490Z,50.852810
2023-04-18T03:57:30.462Z,50.852798
2023-04-18T03:58:30.475Z,50.852814
2023-04-18T03:59:30.452Z,50.852818
2023-04-18T04:00:30.491Z,50.852821
2023-04-18T04:01:30.470Z,50.852837
2023-04-18T04:02:30.521Z,50.852821
2023-04-18T04:03:30.512Z,50.852837
2023-04-18T04:04:30.465Z,50.852821
2023-04-18T04:05:30.448Z,50.852825
2023-04-18T04:06:30.416Z,50.852821
2023-04-18T04:07:30.403Z,50.852821
2023-04-18T04:08:30.409Z,50.852833
2023-04-18T04:09:30.412Z,50.852837
2023-04-18T04:10:30.406Z,50.852821
2023-04-18T04:11:30.378Z,50.852821
2023-04-18T04:12:30.421Z,50.852821
2023-04-18T04:13:30.386Z,50.852818
2023-04-18T04:14:30.391Z,50.852818
2023-04-18T04:15:30.384Z,50.852818
2023-04-18T04:16:30.396Z,50.852806
2023-04-18T04:17:30.405Z,50.852821
2023-04-18T04:18:30.368Z,50.852837
2023-04-18T04:19:30.343Z,50.852837
2023-04-18T04:20:30.361Z,50.852787
2023-04-18T04:21:30.340Z,50.852814
2023-04-18T04:22:30.331Z,50.852798
2023-04-18T04:23:30.309Z,50.852787
2023-04-18T04:24:30.319Z,50.852814
2023-04-18T04:25:30.318Z,50.852802
2023-04-18T04:26:30.319Z,50.852795
2023-04-18T04:27:30.284Z,50.852802
2023-04-18T04:28:30.322Z,50.852802
2023-04-18T04:29:30.266Z,50.852795
2023-04-18T04:30:30.288Z,50.852802
2023-04-18T04:31:30.301Z,50.852802
2023-04-18T04:32:30.286Z,50.852806
2023-04-18T04:33:30.268Z,50.852783
2023-04-18T04:34:30.444Z,50.852818
2023-04-18T04:35:30.301Z,50.852821
2023-04-18T04:36:30.237Z,50.852814
2023-04-18T04:37:30.238Z,50.852802
2023-04-18T04:38:30.251Z,50.852802
2023-04-18T04:39:30.231Z,50.852825
2023-04-18T04:40:30.257Z,50.852791
2023-04-18T04:41:30.331Z,50.852779
2023-04-18T04:42:30.228Z,50.852829
2023-04-18T04:43:30.198Z,50.852802
2023-04-18T04:44:30.269Z,50.852772
2023-04-18T04:45:30.264Z,50.852760
2023-04-18T04:46:30.210Z,50.852798
2023-04-18T04:47:30.210Z,50.852798
2023-04-18T04:48:30.183Z,50.852848
2023-04-18T04:49:30.191Z,50.852814
2023-04-18T04:50:30.196Z,50.852806
2023-04-18T04:51:30.149Z,50.852810
2023-04-18T04:52:30.157Z,50.852810
2023-04-18T04:53:30.184Z,50.852829
2023-04-18T04:54:30.174Z,50.852837
2023-04-18T04:55:30.152Z,50.852821
2023-04-18T04:56:30.174Z,50.852829
2023-04-18T04:57:30.116Z,50.852802
2023-04-18T04:58:30.127Z,50.852825
2023-04-18T04:59:30.115Z,50.852859
2023-04-18T05:00:30.128Z,50.852779
2023-04-18T05:01:30.239Z,50.852795
2023-04-18T05:02:30.239Z,50.852760
2023-04-18T05:03:30.226Z,50.852776
2023-04-18T05:04:30.198Z,50.852764
2023-04-18T05:05:30.101Z,50.852722
2023-04-18T05:06:30.113Z,50.852741
2023-04-18T05:07:30.073Z,50.852699
2023-04-18T05:08:30.107Z,50.852737
2023-04-18T05:09:30.073Z,50.852757
2023-04-18T05:10:30.078Z,50.852772
2023-04-18T05:11:30.065Z,50.852772
2023-04-18T05:12:30.053Z,50.852802
2023-04-18T05:13:30.031Z,50.852829
2023-04-18T05:14:30.036Z,50.852798
2023-04-18T05:15:30.052Z,50.852821
2023-04-18T05:16:30.102Z,50.852814
2023-04-18T05:17:30.106Z,50.852818
2023-04-18T05:18:30.038Z,50.852818
2023-04-18T05:19:30.029Z,50.852810
2023-04-18T05:20:30.009Z,50.852791
2023-04-18T05:21:29.985Z,50.852859
2023-04-18T05:22:29.998Z,50.852867
2023-04-18T05:23:29.982Z,50.852821
2023-04-18T05:24:29.986Z,50.852814
2023-04-18T05:25:30.096Z,50.852798
2023-04-18T05:26:29.973Z,50.852791
2023-04-18T05:27:29.947Z,50.852814
2023-04-18T05:28:29.973Z,50.852814
2023-04-18T05:29:29.976Z,50.852837
2023-04-18T05:30:29.968Z,50.852825
2023-04-18T05:31:30.025Z,50.852825
2023-04-18T05:32:29.968Z,50.852837
2023-04-18T05:33:29.945Z,50.852753
2023-04-18T05:34:29.932Z,50.852768
2023-04-18T05:35:29.933Z,50.852795
2023-04-18T05:36:29.942Z,50.852795
2023-04-18T05:37:29.930Z,50.852787
2023-04-18T05:38:29.918Z,50.852833
2023-04-18T05:39:29.904Z,50.852879
2023-04-18T05:40:29.915Z,50.852764
2023-04-18T05:41:29.886Z,50.852806
2023-04-18T05:42:29.895Z,50.852787
2023-04-18T05:43:29.905Z,50.852829
2023-04-18T05:44:29.891Z,50.852837
2023-04-18T05:45:29.875Z,50.852802
2023-04-18T05:46:29.949Z,50.852787
2023-04-18T05:47:30.349Z,50.852768
2023-04-18T05:48:29.865Z,50.852798
2023-04-18T05:49:29.854Z,50.852753
2023-04-18T05:50:29.845Z,50.852772
2023-04-18T05:51:29.837Z,50.852787
2023-04-18T05:52:29.857Z,50.852814
2023-04-18T05:53:29.879Z,50.852818
2023-04-18T05:54:29.848Z,50.852844
2023-04-18T05:55:29.825Z,50.852821
2023-04-18T05:56:29.815Z,50.852825
2023-04-18T05:57:29.807Z,50.852814
2023-04-18T05:58:36.858Z,50.852829
2023-04-18T05:59:29.784Z,50.852814
2023-04-18T06:00:29.810Z,50.852795
2023-04-18T06:01:29.784Z,50.852825
2023-04-18T06:02:29.829Z,50.852806
2023-04-18T06:03:30.145Z,50.852821
2023-04-18T06:04:29.880Z,50.852833
2023-04-18T06:05:30.044Z,50.852825
2023-04-18T06:06:29.799Z,50.852814
2023-04-18T06:07:29.728Z,50.852814
2023-04-18T06:08:29.759Z,50.852779
2023-04-18T06:09:29.749Z,50.852795
2023-04-18T06:10:29.729Z,50.852791
2023-04-18T06:11:29.710Z,50.852833
2023-04-18T06:12:29.716Z,50.852844
2023-04-18T06:13:29.695Z,50.852848
2023-04-18T06:14:29.732Z,50.852837
2023-04-18T06:15:29.690Z,50.852844
2023-04-18T06:16:29.757Z,50.852821
2023-04-18T06:17:29.730Z,50.852810
2023-04-18T06:18:29.733Z,50.852859
2023-04-18T06:19:29.675Z,50.852859
2023-04-18T06:20:29.710Z,50.852863
2023-04-18T06:21:29.660Z,50.852867
2023-04-18T06:22:29.676Z,50.852837
2023-04-18T06:23:29.643Z,50.852840
2023-04-18T06:24:31.158Z,50.852821
2023-04-18T06:25:29.662Z,50.852833
2023-04-18T06:26:29.674Z,50.852859
2023-04-18T06:27:31.902Z,50.852859
2023-04-18T06:28:29.641Z,50.852840
2023-04-18T06:29:29.638Z,50.852837
2023-04-18T06:30:29.651Z,50.852818
2023-04-18T06:31:29.621Z,50.852837
2023-04-18T06:32:29.663Z,50.852814
2023-04-18T06:33:29.609Z,50.852825
2023-04-18T06:34:29.600Z,50.852829
2023-04-18T06:35:29.646Z,50.852814
2023-04-18T06:36:29.612Z,50.852753
2023-04-18T06:37:29.611Z,50.852802
2023-04-18T06:38:29.609Z,50.852840
2023-04-18T06:39:29.568Z,50.852787
2023-04-18T06:40:29.616Z,50.852806
2023-04-18T06:41:29.560Z,50.852829
2023-04-18T06:42:29.584Z,50.852779
2023-04-18T06:43:29.547Z,50.852753
2023-04-18T06:44:29.600Z,50.852768
2023-04-18T06:45:29.569Z,50.852787
2023-04-18T06:46:29.692Z,50.852798
2023-04-18T06:47:29.557Z,50.852814
2023-04-18T06:48:29.536Z,50.852829
2023-04-18T06:49:29.550Z,50.852825
2023-04-18T06:50:29.570Z,50.852806
2023-04-18T06:51:29.539Z,50.852791
2023-04-18T06:52:29.514Z,50.852818
2023-04-18T06:53:29.489Z,50.852818
2023-04-18T06:54:29.520Z,50.852818
2023-04-18T06:55:29.472Z,50.852810
2023-04-18T06:56:29.517Z,50.852829
2023-04-18T06:57:29.480Z,50.852810
2023-04-18T06:58:29.488Z,50.852810
2023-04-18T06:59:29.458Z,50.852837
2023-04-18T07:00:29.573Z,50.852829
2023-04-18T07:01:29.482Z,50.852821
2023-04-18T07:02:29.537Z,50.852806
2023-04-18T07:03:29.633Z,50.852821
2023-04-18T07:04:29.556Z,50.852810
2023-04-18T07:05:29.705Z,50.852802
2023-04-18T07:06:29.443Z,50.852791
2023-04-18T07:07:29.411Z,50.852798
2023-04-18T07:08:29.464Z,50.852798
2023-04-18T07:09:29.431Z,50.852798
2023-04-18T07:10:29.429Z,50.852798
2023-04-18T07:11:29.387Z,50.852798
2023-04-18T07:12:29.397Z,50.852787
2023-04-18T07:13:29.381Z,50.852795
2023-04-18T07:14:29.395Z,50.852787
2023-04-18T07:15:29.389Z,50.852779
2023-04-18T07:16:29.462Z,50.852795
2023-04-18T07:17:29.420Z,50.852772
2023-04-18T07:18:37.511Z,50.852814
2023-04-18T07:19:30.340Z,50.852810
2023-04-18T07:20:29.510Z,50.852810
2023-04-18T07:21:29.384Z,50.852814
2023-04-18T07:22:29.329Z,50.852829
2023-04-18T07:23:29.316Z,50.852833
2023-04-18T07:24:29.335Z,50.852821
2023-04-18T07:25:29.322Z,50.852848
2023-04-18T07:26:29.307Z,50.852829
2023-04-18T07:27:29.310Z,50.852806
2023-04-18T07:28:29.302Z,50.852787
2023-04-18T07:29:29.274Z,50.852783
2023-04-18T07:30:29.307Z,50.852783
2023-04-18T07:31:29.342Z,50.852779
2023-04-18T07:32:29.349Z,50.852768
2023-04-18T07:33:29.272Z,50.852798
2023-04-18T07:34:29.262Z,50.852825
2023-04-18T07:35:29.242Z,50.852795
2023-04-18T07:36:29.294Z,50.852795
2023-04-18T07:37:29.383Z,50.852779
2023-04-18T07:38:29.265Z,50.852764
2023-04-18T07:39:29.247Z,50.852745
2023-04-18T07:40:29.248Z,50.852806
2023-04-18T07:41:29.233Z,50.852795
2023-04-18T07:42:29.248Z,50.852776
2023-04-18T07:43:29.273Z,50.852783
2023-04-18T07:44:29.216Z,50.852726
2023-04-18T07:45:29.180Z,50.852757
2023-04-18T07:46:29.210Z,50.852753
2023-04-18T07:47:30.162Z,50.852741
2023-04-18T07:48:29.217Z,50.852734
2023-04-18T07:49:29.221Z,50.852783
2023-04-18T07:50:29.186Z,50.852798
2023-04-18T07:51:29.182Z,50.852795
2023-04-18T07:52:29.185Z,50.852779
2023-04-18T07:53:29.157Z,50.852779
2023-04-18T07:54:29.174Z,50.852779
2023-04-18T07:55:29.143Z,50.852791
2023-04-18T07:56:29.160Z,50.852768
2023-04-18T07:57:29.123Z,50.852783
2023-04-18T07:58:29.140Z,50.852798
2023-04-18T07:59:29.109Z,50.852783
2023-04-18T08:00:29.190Z,50.852776
2023-04-18T08:01:29.155Z,50.852783
2023-04-18T08:02:29.309Z,50.852783
2023-04-18T08:03:29.250Z,50.852798
2023-04-18T08:04:30.453Z,50.852795
2023-04-18T08:05:29.135Z,50.852791
2023-04-18T08:06:29.143Z,50.852764
2023-04-18T08:07:29.092Z,50.852741
2023-04-18T08:08:29.074Z,50.852737
2023-04-18T08:09:29.085Z,50.852741
2023-04-18T08:10:29.086Z,50.852753
2023-04-18T08:11:29.057Z,50.852772
2023-04-18T08:12:29.052Z,50.852753
2023-04-18T08:13:29.046Z,50.852768
2023-04-18T08:14:29.037Z,50.852776
2023-04-18T08:15:29.032Z,50.852764
2023-04-18T08:16:29.101Z,50.852753
2023-04-18T08:17:29.037Z,50.852772
2023-04-18T08:18:29.044Z,50.852783
2023-04-18T08:19:29.022Z,50.852734
2023-04-18T08:20:29.054Z,50.852737
2023-04-18T08:21:28.986Z,50.852753
2023-04-18T08:22:29.039Z,50.852749
2023-04-18T08:23:29.027Z,50.852772
2023-04-18T08:24:28.988Z,50.852764
2023-04-18T08:25:28.981Z,50.852779
2023-04-18T08:26:28.966Z,50.852772
2023-04-18T08:27:28.982Z,50.852802
2023-04-18T08:28:28.997Z,50.852821
2023-04-18T08:29:28.970Z,50.852814
2023-04-18T08:30:28.992Z,50.852768
2023-04-18T08:31:28.947Z,50.852787
2023-04-18T08:32:29.016Z,50.852810
2023-04-18T08:33:28.904Z,50.852764
2023-04-18T08:34:28.926Z,50.852776
2023-04-18T08:35:28.942Z,50.852787
2023-04-18T08:36:28.906Z,50.852772
2023-04-18T08:37:28.901Z,50.852791
2023-04-18T08:38:28.902Z,50.852745
2023-04-18T08:39:28.870Z,50.852745
2023-04-18T08:40:28.899Z,50.852741
2023-04-18T08:41:28.965Z,50.852749
2023-04-18T08:42:28.875Z,50.852764
2023-04-18T08:43:28.842Z,50.852791
2023-04-18T08:44:28.845Z,50.852753
2023-04-18T08:45:28.916Z,50.852749
2023-04-18T08:46:28.983Z,50.852753
2023-04-18T08:47:28.829Z,50.852757
2023-04-18T08:48:28.875Z,50.852749
2023-04-18T08:49:28.834Z,50.852737
2023-04-18T08:50:28.820Z,50.852737
2023-04-18T08:51:28.795Z,50.852768
2023-04-18T08:52:28.822Z,50.852753
2023-04-18T08:53:28.803Z,50.852753
2023-04-18T08:54:28.790Z,50.852753
2023-04-18T08:55:28.786Z,50.852768
2023-04-18T08:56:28.803Z,50.852757
2023-04-18T08:57:28.989Z,50.852749
2023-04-18T08:58:28.852Z,50.852768
2023-04-18T08:59:28.753Z,50.852764
2023-04-18T09:00:28.769Z,50.852779
2023-04-18T09:01:28.800Z,50.852760
2023-04-18T09:02:28.808Z,50.852776
2023-04-18T09:03:28.810Z,50.852772
2023-04-18T09:04:28.935Z,50.852764
2023-04-18T09:05:28.715Z,50.852768
2023-04-18T09:06:28.757Z,50.852760
2023-04-18T09:07:28.724Z,50.852753
2023-04-18T09:08:28.713Z,50.852749
2023-04-18T09:09:28.702Z,50.852757
2023-04-18T09:10:28.753Z,50.852772
2023-04-18T09:11:28.818Z,50.852776
2023-04-18T09:12:28.697Z,50.852776
2023-04-18T09:13:28.908Z,50.852779
2023-04-18T09:14:28.727Z,50.852764
2023-04-18T09:15:28.665Z,50.852787
2023-04-18T09:16:28.690Z,50.852783
2023-04-18T09:17:28.676Z,50.852768
2023-04-18T09:18:28.677Z,50.852764
2023-04-18T09:19:28.628Z,50.852791
2023-04-18T09:20:28.644Z,50.852779
2023-04-18T09:21:28.637Z,50.852772
2023-04-18T09:22:28.617Z,50.852764
2023-04-18T09:23:28.636Z,50.852753
2023-04-18T09:24:28.638Z,50.852745
2023-04-18T09:25:28.657Z,50.852737
2023-04-18T09:26:28.609Z,50.852749
2023-04-18T09:27:28.601Z,50.852753
2023-04-18T09:28:28.604Z,50.852749
2023-04-18T09:29:28.852Z,50.852779
2023-04-18T09:30:28.588Z,50.852776
2023-04-18T09:31:28.627Z,50.852760
2023-04-18T09:32:28.574Z,50.852734
2023-04-18T09:33:28.593Z,50.852753
2023-04-18T09:34:28.577Z,50.852806
2023-04-18T09:35:28.532Z,50.852791
2023-04-18T09:36:28.634Z,50.852810
2023-04-18T09:37:28.507Z,50.852760
2023-04-18T09:38:28.529Z,50.852764
2023-04-18T09:39:28.565Z,50.852764
2023-04-18T09:40:28.513Z,50.852772
2023-04-18T09:41:28.502Z,50.852737
2023-04-18T09:42:29.078Z,50.852730
2023-04-18T09:43:28.489Z,50.852764
2023-04-18T09:44:28.579Z,50.852795
2023-04-18T09:45:28.487Z,50.852779
2023-04-18T09:46:28.508Z,50.852741
2023-04-18T09:47:28.523Z,50.852749
2023-04-18T09:48:28.469Z,50.852753
2023-04-18T09:49:28.448Z,50.852772
2023-04-18T09:50:28.467Z,50.852737
2023-04-18T09:51:28.451Z,50.852741
2023-04-18T09:52:28.457Z,50.852749
2023-04-18T09:53:28.429Z,50.852795
2023-04-18T09:54:28.447Z,50.852791
2023-04-18T09:55:28.432Z,50.852791
2023-04-18T09:56:28.443Z,50.852783
2023-04-18T09:57:28.407Z,50.852768
2023-04-18T09:58:28.411Z,50.852772
2023-04-18T09:59:28.411Z,50.852768
2023-04-18T10:00:28.432Z,50.852749
2023-04-18T10:01:28.424Z,50.852760
2023-04-18T10:02:28.428Z,50.852764
2023-04-18T10:03:28.421Z,50.852772
2023-04-18T10:04:28.436Z,50.852779
2023-04-18T10:05:28.457Z,50.852779
2023-04-18T10:06:28.381Z,50.852760
2023-04-18T10:07:28.336Z,50.852734
2023-04-18T10:08:28.386Z,50.852757
2023-04-18T10:09:28.339Z,50.852734
2023-04-18T10:10:28.335Z,50.852745
2023-04-18T10:11:28.305Z,50.852757
2023-04-18T10:12:28.324Z,50.852745
2023-04-18T10:13:28.350Z,50.852760
2023-04-18T10:14:28.580Z,50.852745
2023-04-18T10:15:28.273Z,50.852787
2023-04-18T10:16:28.327Z,50.852764
2023-04-18T10:17:29.408Z,50.852768
2023-04-18T10:18:28.420Z,50.852783
2023-04-18T10:19:28.269Z,50.852760
2023-04-18T10:20:28.253Z,50.852737
2023-04-18T10:21:28.230Z,50.852737
2023-04-18T10:22:28.271Z,50.852764
2023-04-18T10:23:28.275Z,50.852768
2023-04-18T10:24:28.226Z,50.852749
2023-04-18T10:25:28.205Z,50.852768
2023-04-18T10:26:28.218Z,50.852783
2023-04-18T10:27:28.208Z,50.852787
2023-04-18T10:28:28.218Z,50.852760
2023-04-18T10:29:28.205Z,50.852753
2023-04-18T10:30:28.207Z,50.852760
2023-04-18T10:31:28.479Z,50.852749
2023-04-18T10:32:28.197Z,50.852768
2023-04-18T10:33:31.962Z,50.852783
2023-04-18T10:34:28.162Z,50.852787
2023-04-18T10:35:28.181Z,50.852772
2023-04-18T10:36:28.439Z,50.852783
2023-04-18T10:37:28.159Z,50.852783
2023-04-18T10:38:28.159Z,50.852768
2023-04-18T10:39:28.173Z,50.852783
2023-04-18T10:40:28.106Z,50.852772
2023-04-18T10:41:28.147Z,50.852776
2023-04-18T10:42:28.237Z,50.852795
2023-04-18T10:43:28.090Z,50.852776
2023-04-18T10:44:28.093Z,50.852772
2023-04-18T10:45:28.097Z,50.852776
2023-04-18T10:46:31.572Z,50.852779
2023-04-18T10:47:28.154Z,50.852795
2023-04-18T10:48:28.064Z,50.852779
2023-04-18T10:49:30.274Z,50.852806
2023-04-18T10:50:28.057Z,50.852818
2023-04-18T10:51:28.025Z,50.852825
2023-04-18T10:52:28.034Z,50.852802
2023-04-18T10:53:28.029Z,50.852791
2023-04-18T10:54:28.029Z,50.852776
2023-04-18T10:55:28.024Z,50.852764
2023-04-18T10:56:28.009Z,50.852768
2023-04-18T10:57:28.013Z,50.852776
2023-04-18T10:58:28.022Z,50.852779
2023-04-18T10:59:27.967Z,50.852806
2023-04-18T11:00:28.015Z,50.852787
2023-04-18T11:01:30.270Z,50.852802
2023-04-18T11:02:28.052Z,50.852783
2023-04-18T11:03:28.035Z,50.852768
2023-04-18T11:04:27.986Z,50.852783
2023-04-18T11:05:28.192Z,50.852764
2023-04-18T11:06:28.292Z,50.852776
2023-04-18T11:07:29.936Z,50.852779
2023-04-18T11:08:27.938Z,50.852776
2023-04-18T11:09:27.929Z,50.852768
2023-04-18T11:10:27.951Z,50.852768
2023-04-18T11:11:27.908Z,50.852772
2023-04-18T11:12:27.923Z,50.852772
2023-04-18T11:13:27.895Z,50.852772
2023-04-18T11:14:27.885Z,50.852787
2023-04-18T11:15:30.884Z,50.852798
2023-04-18T11:16:27.937Z,50.852798
2023-04-18T11:17:27.887Z,50.852798
2023-04-18T11:18:27.887Z,50.852802
2023-04-18T11:19:27.837Z,50.852791
2023-04-18T11:20:27.884Z,50.852791
2023-04-18T11:21:30.267Z,50.852764
2023-04-18T11:22:27.838Z,50.852791
2023-04-18T11:23:27.810Z,50.852772
2023-04-18T11:24:27.831Z,50.852757